Gravette, AR (72736)

8:42 AM CDT on March 27, 2017 (GMT -0500)
FryeComp -2 Mi/S SWC | | Change Station

Elev 1138 ft 36.48 °N, 94.61 °W | Updated 41 seconds ago

Overcast
Overcast
56.8 °F
Feels Like 56.8 °F
N
0.0
Wind Variable Wind from East

Today
High -- | Low -- °F
--% Chance of Precip.
Yesterday
High -- | Low -- °F
Precip. -- in
Pressure 29.77 in
Visibility 10.0 miles
Clouds Overcast 2100 ft
Dew Point 56 °F
Humidity 97%
Rainfall 0.46 in
Snow Depth Not available.
7:10 AM 7:35 PM
Waning Crescent, 0% visible
METAR KXNA 271253Z 11003KT 10SM OVC021 13/13 A2979 RMK AO2 SLP079 T01330128
Pressure 29.77 in
Visibility 10.0 miles
Clouds Overcast 2100 ft
Dew Point 56 °F
Humidity 97%
Rainfall 0.46 in
Snow Depth Not available.
7:10 AM 7:35 PM
Waning Crescent, 0% visible
METAR KXNA 271253Z 11003KT 10SM OVC021 13/13 A2979 RMK AO2 SLP079 T01330128

Get Severe Weather Alerts

Thanks for signing up!

Be on the lookout for a verification email in your inbox.

You'll start receiving the daily forecast at 8 AM.

×

10-Day Weather Forecast

Almanac

Astronomy

Mar. 27, 2017 Rise Set
Actual Time
Civil Twilight
Nautical Twilight
Astronomical Twilight
Moon
Length of Visible Light
Length of Day
Tomorrow will be .
, % of the Moon is Illuminated

Today's Extremes

State Highs State Lows

Community

WunderPhotos

Upload Photos

1,962,540 photos uploaded!

WunderBlog® & News

Nearby

Air Quality

  Air Quality AQ Index Pollutant
Not available.

Snow Depth

Station Depth Elevation

Earthquake Activity

City Distance Mag. Time & Date
Minimum magnitude displayed is 2.5.

Earthquake Activity

City Distance Mag. Time & Date
Minimum magnitude displayed is 2.5.

Coastal Water Temperatures

Place Temperature

Stations

Nearby Weather Stations

Station Location Temp. Windchill Dew Point Humidity Wind Precip. Elev Updated Type
                   

Watches & Warnings

There are currently no watches in effect.